createdAt,value
2023-02-05T00:00:18.231Z,20.30
2023-02-05T00:02:46.713Z,22.10
2023-02-05T00:05:15.255Z,18.03
2023-02-05T00:07:43.690Z,19.67
2023-02-05T00:10:12.318Z,19.27
2023-02-05T00:12:40.773Z,23.30
2023-02-05T00:15:11.195Z,19.33
2023-02-05T00:17:39.620Z,20.60
2023-02-05T00:20:08.771Z,16.23
2023-02-05T00:22:37.213Z,27.00
2023-02-05T00:25:05.861Z,48.00
2023-02-05T00:27:34.616Z,40.63
2023-02-05T00:30:03.353Z,14.77
2023-02-05T00:32:33.216Z,17.40
2023-02-05T00:35:01.720Z,24.00
2023-02-05T00:37:30.236Z,20.23
2023-02-05T00:39:58.917Z,26.27
2023-02-05T00:42:28.013Z,19.70
2023-02-05T00:44:57.570Z,17.33
2023-02-05T00:47:27.004Z,16.43
2023-02-05T00:49:56.781Z,15.80
2023-02-05T00:52:25.420Z,15.53
2023-02-05T00:54:54.817Z,18.67
2023-02-05T00:57:24.780Z,19.40
2023-02-05T00:59:53.882Z,21.23
2023-02-05T01:02:24.324Z,18.87
2023-02-05T01:04:53.197Z,23.23
2023-02-05T01:07:23.091Z,23.80
2023-02-05T01:09:51.794Z,19.97
2023-02-05T01:12:20.307Z,15.27
2023-02-05T01:14:48.676Z,17.70
2023-02-05T01:17:17.143Z,17.23
2023-02-05T01:19:45.592Z,19.07
2023-02-05T01:22:14.287Z,26.43
2023-02-05T01:24:44.088Z,21.97
2023-02-05T01:27:12.534Z,19.97
2023-02-05T01:29:41.116Z,17.77
2023-02-05T01:32:09.620Z,22.70
2023-02-05T01:34:38.307Z,20.80
2023-02-05T01:37:06.724Z,20.27
2023-02-05T01:39:36.367Z,22.43
2023-02-05T01:42:06.346Z,17.83
2023-02-05T01:44:35.057Z,19.00
2023-02-05T01:47:03.470Z,16.47
2023-02-05T01:49:33.144Z,18.60
2023-02-05T01:52:03.407Z,20.57
2023-02-05T01:54:33.387Z,21.77
2023-02-05T01:57:05.377Z,20.10
2023-02-05T01:59:36.759Z,21.67
2023-02-05T02:02:07.641Z,15.80
2023-02-05T02:04:39.173Z,22.07
2023-02-05T02:07:09.772Z,19.23
2023-02-05T02:09:39.453Z,22.23
2023-02-05T02:12:08.859Z,17.30
2023-02-05T02:14:39.378Z,21.43
2023-02-05T02:17:08.081Z,20.70
2023-02-05T02:19:40.011Z,21.57
2023-02-05T02:22:14.374Z,25.97
2023-02-05T02:24:50.529Z,28.00
2023-02-05T02:27:42.754Z,25.27
2023-02-05T02:30:14.532Z,27.23
2023-02-05T02:32:44.857Z,26.47
2023-02-05T02:35:17.352Z,27.73
2023-02-05T02:37:49.005Z,33.00
2023-02-05T02:40:20.220Z,30.17
2023-02-05T02:42:53.092Z,31.80
2023-02-05T02:45:23.051Z,30.57
2023-02-05T02:47:54.182Z,31.10
2023-02-05T02:50:25.071Z,32.77
2023-02-05T02:52:53.929Z,31.87
2023-02-05T02:55:23.483Z,34.13
2023-02-05T02:57:53.711Z,33.90
2023-02-05T03:00:24.401Z,39.00
2023-02-05T03:02:54.359Z,37.43
2023-02-05T03:05:24.059Z,37.60
2023-02-05T03:07:54.729Z,30.17
2023-02-05T03:10:26.442Z,31.27
2023-02-05T03:12:58.006Z,31.37
2023-02-05T03:15:27.421Z,30.27
2023-02-05T03:17:56.390Z,27.00
2023-02-05T03:20:27.330Z,21.57
2023-02-05T03:22:57.557Z,23.87
2023-02-05T03:25:27.022Z,21.77
2023-02-05T03:28:00.414Z,24.17
2023-02-05T03:30:38.349Z,28.27
2023-02-05T03:33:16.060Z,29.80
2023-02-05T03:35:48.436Z,24.43
2023-02-05T03:38:24.797Z,23.07
2023-02-05T03:40:57.294Z,19.97
2023-02-05T03:43:33.901Z,21.97
2023-02-05T03:46:05.054Z,18.37
2023-02-05T03:48:43.393Z,16.37
2023-02-05T03:51:18.849Z,21.73
2023-02-05T03:53:52.394Z,21.23
2023-02-05T03:56:23.400Z,22.77
2023-02-05T03:58:55.397Z,18.13
2023-02-05T04:01:26.691Z,17.80
2023-02-05T04:03:55.183Z,18.07
2023-02-05T04:06:24.884Z,22.63
2023-02-05T04:08:55.257Z,16.63
2023-02-05T04:11:24.870Z,14.20
2023-02-05T04:13:55.982Z,10.73
2023-02-05T04:16:25.058Z,14.47
2023-02-05T04:18:53.526Z,13.87
2023-02-05T04:21:22.927Z,12.10
2023-02-05T04:23:51.830Z,13.50
2023-02-05T04:26:20.984Z,11.90
2023-02-05T04:29:00.903Z,13.93
2023-02-05T04:31:32.228Z,11.97
2023-02-05T04:34:01.803Z,11.47
2023-02-05T04:36:30.271Z,14.73
2023-02-05T04:38:59.743Z,10.87
2023-02-05T04:41:28.779Z,11.30
2023-02-05T04:43:57.340Z,11.37
2023-02-05T04:46:27.078Z,11.20
2023-02-05T04:48:55.458Z,9.40
2023-02-05T04:51:23.826Z,12.70
2023-02-05T04:53:52.213Z,10.67
2023-02-05T04:56:20.594Z,11.33
2023-02-05T04:58:49.002Z,12.23
2023-02-05T05:01:18.418Z,9.87
2023-02-05T05:03:48.573Z,9.17
2023-02-05T05:06:17.615Z,9.23
2023-02-05T05:08:46.496Z,11.73
2023-02-05T05:11:15.636Z,11.70
2023-02-05T05:13:44.408Z,10.33
2023-02-05T05:16:13.558Z,14.27
2023-02-05T05:18:42.351Z,12.17
2023-02-05T05:21:12.413Z,12.10
2023-02-05T05:23:40.782Z,12.00
2023-02-05T05:26:10.186Z,12.80
2023-02-05T05:28:38.648Z,14.27
2023-02-05T05:31:11.212Z,7.97
2023-02-05T05:33:39.663Z,12.63
2023-02-05T05:36:08.590Z,10.40
2023-02-05T05:38:38.761Z,13.63
2023-02-05T05:41:25.106Z,12.47
2023-02-05T05:43:55.375Z,11.60
2023-02-05T05:46:25.103Z,15.77
2023-02-05T05:48:54.946Z,10.30
2023-02-05T05:51:24.113Z,13.13
2023-02-05T05:53:54.159Z,11.47
2023-02-05T05:56:22.883Z,13.37
2023-02-05T05:58:51.587Z,11.17
2023-02-05T06:01:22.106Z,11.60
2023-02-05T06:03:50.791Z,12.20
2023-02-05T06:06:19.188Z,13.80
2023-02-05T06:08:47.588Z,13.17
2023-02-05T06:11:17.633Z,12.33
2023-02-05T06:13:46.040Z,11.63
2023-02-05T06:16:14.427Z,14.63
2023-02-05T06:18:42.853Z,12.77
2023-02-05T06:21:11.478Z,16.00
2023-02-05T06:23:39.848Z,15.93
2023-02-05T06:26:08.241Z,15.43
2023-02-05T06:28:38.050Z,14.80
2023-02-05T06:31:06.910Z,11.30
2023-02-05T06:33:35.412Z,17.20
2023-02-05T06:36:03.989Z,9.83
2023-02-05T06:38:32.421Z,14.20
2023-02-05T06:41:00.888Z,12.83
2023-02-05T06:43:29.274Z,12.30
2023-02-05T06:45:58.995Z,12.53
2023-02-05T06:48:27.409Z,12.10
2023-02-05T06:50:57.027Z,10.90
2023-02-05T06:53:25.452Z,9.70
2023-02-05T06:55:53.818Z,12.17
2023-02-05T06:58:22.510Z,12.93
2023-02-05T07:00:50.864Z,14.47
2023-02-05T07:03:20.620Z,13.97
2023-02-05T07:05:49.184Z,11.63
2023-02-05T07:08:17.798Z,13.07
2023-02-05T07:10:46.181Z,12.47
2023-02-05T07:13:14.651Z,15.47
2023-02-05T07:15:43.104Z,10.77
2023-02-05T07:18:11.511Z,9.80
2023-02-05T07:20:41.293Z,11.13
2023-02-05T07:23:09.724Z,11.93
2023-02-05T07:25:38.219Z,11.63
2023-02-05T07:28:07.194Z,13.03
2023-02-05T07:30:35.813Z,10.97
2023-02-05T07:33:05.560Z,12.47
2023-02-05T07:35:35.493Z,11.63
2023-02-05T07:38:06.841Z,13.17
2023-02-05T07:40:35.278Z,13.90
2023-02-05T07:43:03.690Z,14.50
2023-02-05T07:45:32.525Z,13.23
2023-02-05T07:48:01.098Z,11.30
2023-02-05T07:50:29.469Z,11.70
2023-02-05T07:52:58.020Z,10.97
2023-02-05T07:55:27.791Z,11.73
2023-02-05T07:57:56.179Z,9.43
2023-02-05T08:00:25.526Z,15.93
2023-02-05T08:02:54.071Z,9.83
2023-02-05T08:05:22.520Z,9.83
2023-02-05T08:07:51.284Z,9.63
2023-02-05T08:10:19.889Z,10.70
2023-02-05T08:12:49.905Z,10.27
2023-02-05T08:15:18.888Z,10.60
2023-02-05T08:17:47.439Z,6.13
2023-02-05T08:20:16.117Z,6.17
2023-02-05T08:22:45.351Z,6.10
2023-02-05T08:25:15.963Z,7.70
2023-02-05T08:27:46.111Z,7.20
2023-02-05T08:30:17.786Z,8.13
2023-02-05T08:32:49.211Z,9.27
2023-02-05T08:35:17.813Z,8.33
2023-02-05T08:37:46.177Z,7.47
2023-02-05T08:40:15.969Z,10.90
2023-02-05T08:42:44.409Z,11.40
2023-02-05T08:45:14.109Z,8.63
2023-02-05T08:47:43.863Z,10.70
2023-02-05T08:50:12.683Z,10.17
2023-02-05T08:52:41.214Z,11.60
2023-02-05T08:55:09.798Z,10.57
2023-02-05T08:57:38.336Z,12.50
2023-02-05T09:00:07.919Z,13.67
2023-02-05T09:02:36.239Z,15.23
2023-02-05T09:05:09.277Z,18.70
2023-02-05T09:07:37.983Z,14.40
2023-02-05T09:10:07.656Z,14.90
2023-02-05T09:12:36.309Z,18.17
2023-02-05T09:15:04.707Z,18.17
2023-02-05T09:17:33.094Z,17.50
2023-02-05T09:20:01.608Z,22.27
2023-02-05T09:22:31.417Z,19.30
2023-02-05T09:24:59.823Z,21.57
2023-02-05T09:27:28.620Z,20.00
2023-02-05T09:29:57.348Z,23.50
2023-02-05T09:32:25.846Z,25.17
2023-02-05T09:34:54.278Z,28.40
2023-02-05T09:37:23.127Z,26.33
2023-02-05T09:40:19.679Z,20.70
2023-02-05T09:42:46.382Z,22.47
2023-02-05T09:45:23.335Z,22.47
2023-02-05T09:47:56.652Z,24.83
2023-02-05T09:50:29.599Z,23.47
2023-02-05T09:53:01.966Z,24.50
2023-02-05T09:55:33.065Z,20.23
2023-02-05T09:58:04.381Z,21.97
2023-02-05T10:00:35.189Z,18.10
2023-02-05T10:03:10.392Z,21.07
2023-02-05T10:05:41.878Z,28.27
2023-02-05T10:08:15.515Z,25.93
2023-02-05T10:10:47.598Z,20.33
2023-02-05T10:13:30.752Z,17.20
2023-02-05T10:16:08.591Z,18.47
2023-02-05T10:18:43.170Z,20.57
2023-02-05T10:21:19.019Z,20.43
2023-02-05T10:23:55.364Z,22.53
2023-02-05T10:26:28.358Z,22.57
2023-02-05T10:29:07.548Z,21.97
2023-02-05T10:31:41.348Z,18.13
2023-02-05T10:34:18.167Z,14.93
2023-02-05T10:36:49.157Z,20.13
2023-02-05T10:39:20.125Z,20.50
2023-02-05T10:41:53.156Z,22.20
2023-02-05T10:44:25.116Z,16.70
2023-02-05T10:46:58.362Z,14.30
2023-02-05T10:49:28.553Z,21.93
2023-02-05T10:51:57.076Z,18.40
2023-02-05T10:54:28.406Z,15.77
2023-02-05T10:56:59.213Z,21.13
2023-02-05T10:59:28.688Z,18.17
2023-02-05T11:01:57.705Z,20.97
2023-02-05T11:04:32.650Z,22.23
2023-02-05T11:07:01.702Z,22.80
2023-02-05T11:09:32.004Z,18.70
2023-02-05T11:12:02.885Z,19.47
2023-02-05T11:14:33.738Z,21.00
2023-02-05T11:17:05.997Z,19.33
2023-02-05T11:19:35.128Z,22.70
2023-02-05T11:22:04.822Z,21.47
2023-02-05T11:24:34.731Z,22.67
2023-02-05T11:27:26.885Z,24.67
2023-02-05T11:29:55.314Z,23.87
2023-02-05T11:32:24.919Z,20.60
2023-02-05T11:35:09.579Z,19.50
2023-02-05T11:37:40.706Z,20.60
2023-02-05T11:40:19.109Z,18.07
2023-02-05T11:42:51.742Z,22.20
2023-02-05T11:45:20.690Z,17.07
2023-02-05T11:47:49.161Z,18.60
2023-02-05T11:50:23.373Z,18.87
2023-02-05T11:52:51.766Z,21.73
2023-02-05T11:55:28.931Z,20.90
2023-02-05T11:58:03.356Z,18.00
2023-02-05T12:00:32.734Z,19.90
2023-02-05T12:03:06.012Z,23.83
2023-02-05T12:05:36.639Z,21.47
2023-02-05T12:08:09.274Z,19.77
2023-02-05T12:10:44.511Z,18.07
2023-02-05T12:13:22.645Z,17.53
2023-02-05T12:15:56.098Z,17.40
2023-02-05T12:18:30.341Z,23.43
2023-02-05T12:21:06.738Z,19.77
2023-02-05T12:23:47.210Z,18.23
2023-02-05T12:26:28.281Z,17.13
2023-02-05T12:29:03.868Z,23.10
2023-02-05T12:31:42.720Z,21.40
2023-02-05T12:34:16.043Z,22.27
2023-02-05T12:36:49.283Z,21.43
2023-02-05T12:39:24.920Z,19.33
2023-02-05T12:41:56.229Z,21.67
2023-02-05T12:44:33.669Z,19.87
2023-02-05T12:47:07.866Z,19.40
2023-02-05T12:49:44.901Z,24.67
2023-02-05T12:52:23.545Z,22.33
2023-02-05T12:55:10.041Z,19.77
2023-02-05T12:57:41.942Z,23.70
2023-02-05T13:00:17.512Z,25.03
2023-02-05T13:02:50.832Z,24.43
2023-02-05T13:05:22.160Z,26.60
2023-02-05T13:07:53.912Z,21.57
2023-02-05T13:10:24.526Z,22.70
2023-02-05T13:12:54.778Z,22.10
2023-02-05T13:15:26.295Z,21.63
2023-02-05T13:17:58.837Z,29.17
2023-02-05T13:20:50.628Z,23.13
2023-02-05T13:23:38.246Z,25.77
2023-02-05T13:26:24.602Z,31.17
2023-02-05T13:28:55.119Z,25.17
2023-02-05T13:31:29.619Z,24.40
2023-02-05T13:34:00.345Z,27.67
2023-02-05T13:36:43.629Z,25.13
2023-02-05T13:39:22.647Z,27.47
2023-02-05T13:42:15.579Z,32.83
2023-02-05T13:44:56.006Z,31.80
2023-02-05T13:47:48.259Z,27.93
2023-02-05T13:50:35.559Z,23.33
2023-02-05T13:53:16.226Z,25.27
2023-02-05T13:55:53.134Z,23.10
2023-02-05T13:58:24.578Z,20.40
2023-02-05T14:01:02.023Z,19.93
2023-02-05T14:03:38.265Z,28.17
2023-02-05T14:06:24.429Z,24.07
2023-02-05T14:08:59.184Z,18.97
2023-02-05T14:11:27.862Z,19.67
2023-02-05T14:14:14.708Z,20.97
2023-02-05T14:16:43.166Z,17.10
2023-02-05T14:19:21.834Z,21.27
2023-02-05T14:21:51.578Z,29.27
2023-02-05T14:24:44.455Z,21.30
2023-02-05T14:27:36.698Z,25.33
2023-02-05T14:30:20.076Z,23.27
2023-02-05T14:32:59.853Z,22.73
2023-02-05T14:35:32.840Z,22.13
2023-02-05T14:38:03.266Z,18.80
2023-02-05T14:40:35.799Z,22.63
2023-02-05T14:43:16.211Z,19.43
2023-02-05T14:45:45.985Z,26.20
2023-02-05T14:48:24.474Z,21.80
2023-02-05T14:51:03.005Z,20.23
2023-02-05T14:53:32.544Z,32.13
2023-02-05T14:56:02.260Z,28.20
2023-02-05T14:58:32.428Z,24.73
2023-02-05T15:01:20.962Z,26.20
2023-02-05T15:03:50.922Z,22.97
2023-02-05T15:06:20.079Z,32.70
2023-02-05T15:08:51.972Z,35.47
2023-02-05T15:11:26.323Z,29.57
2023-02-05T15:14:13.374Z,24.83
2023-02-05T15:16:42.015Z,28.40
2023-02-05T15:19:13.380Z,31.47
2023-02-05T15:21:43.234Z,29.07
2023-02-05T15:24:15.715Z,24.10
2023-02-05T15:26:47.169Z,27.50
2023-02-05T15:29:16.596Z,35.60
2023-02-05T15:31:47.182Z,25.23
2023-02-05T15:34:28.860Z,32.40
2023-02-05T15:37:01.070Z,35.70
2023-02-05T15:39:32.961Z,22.63
2023-02-05T15:42:02.971Z,28.77
2023-02-05T15:44:32.388Z,31.07
2023-02-05T15:47:02.082Z,31.80
2023-02-05T15:49:34.028Z,31.00
2023-02-05T15:52:02.726Z,33.57
2023-02-05T15:54:33.629Z,36.17
2023-02-05T15:57:02.161Z,36.70
2023-02-05T15:59:31.505Z,36.83
2023-02-05T16:02:04.718Z,39.17
2023-02-05T16:04:35.620Z,37.93
2023-02-05T16:07:04.095Z,44.53
2023-02-05T16:09:32.876Z,35.73
2023-02-05T16:12:12.215Z,47.13
2023-02-05T16:14:40.628Z,39.53
2023-02-05T16:17:11.283Z,40.00
2023-02-05T16:19:44.303Z,46.33
2023-02-05T16:22:19.702Z,51.63
2023-02-05T16:24:50.342Z,45.43
2023-02-05T16:27:22.117Z,42.23
2023-02-05T16:29:52.544Z,31.90
2023-02-05T16:32:23.588Z,42.17
2023-02-05T16:34:53.530Z,43.17
2023-02-05T16:37:26.240Z,46.03
2023-02-05T16:39:58.915Z,35.33
2023-02-05T16:42:33.124Z,45.57
2023-02-05T16:45:07.652Z,42.30
2023-02-05T16:47:36.118Z,31.60
2023-02-05T16:50:26.492Z,37.17
2023-02-05T16:52:59.291Z,46.13
2023-02-05T16:55:43.594Z,42.77
2023-02-05T16:58:14.589Z,39.33
2023-02-05T17:00:43.038Z,43.60
2023-02-05T17:03:18.624Z,41.50
2023-02-05T17:05:54.129Z,37.20
2023-02-05T17:08:28.726Z,31.10
2023-02-05T17:10:57.934Z,43.90
2023-02-05T17:13:28.762Z,40.33
2023-02-05T17:15:57.385Z,44.30
2023-02-05T17:18:30.613Z,38.37
2023-02-05T17:21:17.694Z,45.30
2023-02-05T17:23:50.646Z,43.37
2023-02-05T17:26:20.078Z,44.70
2023-02-05T17:28:52.221Z,49.47
2023-02-05T17:31:24.899Z,55.80
2023-02-05T17:33:53.866Z,42.47
2023-02-05T17:36:22.606Z,50.43
2023-02-05T17:38:52.981Z,49.70
2023-02-05T17:41:40.009Z,46.13
2023-02-05T17:44:10.905Z,40.60
2023-02-05T17:46:39.261Z,41.43
2023-02-05T17:49:07.712Z,45.83
2023-02-05T17:51:38.725Z,52.77
2023-02-05T17:54:12.415Z,45.33
2023-02-05T17:56:42.088Z,56.00
2023-02-05T17:59:12.287Z,40.90
2023-02-05T18:01:40.821Z,51.30
2023-02-05T18:04:09.489Z,51.70
2023-02-05T18:06:38.556Z,54.80
2023-02-05T18:09:07.522Z,35.43
2023-02-05T18:11:37.411Z,46.87
2023-02-05T18:14:05.918Z,50.40
2023-02-05T18:16:34.367Z,45.57
2023-02-05T18:19:02.791Z,59.40
2023-02-05T18:21:31.225Z,44.20
2023-02-05T18:23:59.681Z,45.00
2023-02-05T18:26:28.190Z,49.40
2023-02-05T18:28:58.098Z,43.60
2023-02-05T18:31:26.645Z,39.10
2023-02-05T18:33:55.064Z,47.23
2023-02-05T18:36:24.033Z,56.27
2023-02-05T18:38:52.660Z,45.60
2023-02-05T18:41:22.519Z,49.93
2023-02-05T18:43:50.924Z,57.70
2023-02-05T18:46:21.205Z,56.07
2023-02-05T18:48:50.247Z,43.13
2023-02-05T18:51:19.536Z,52.50
2023-02-05T18:53:48.729Z,56.63
2023-02-05T18:56:18.937Z,45.23
2023-02-05T18:58:51.878Z,64.83
2023-02-05T19:01:21.784Z,50.37
2023-02-05T19:03:52.779Z,59.87
2023-02-05T19:06:21.746Z,56.40
2023-02-05T19:08:50.729Z,53.23
2023-02-05T19:11:20.957Z,48.83
2023-02-05T19:13:49.800Z,39.33
2023-02-05T19:16:18.748Z,51.77
2023-02-05T19:18:48.690Z,63.77
2023-02-05T19:21:18.210Z,53.63
2023-02-05T19:23:47.261Z,53.83
2023-02-05T19:26:16.361Z,51.60
2023-02-05T19:28:45.382Z,56.17
2023-02-05T19:31:15.210Z,58.30
2023-02-05T19:33:43.753Z,49.50
2023-02-05T19:36:13.678Z,54.70
2023-02-05T19:38:42.959Z,58.30
2023-02-05T19:41:12.625Z,53.87
2023-02-05T19:43:43.220Z,57.87
2023-02-05T19:46:11.805Z,55.80
2023-02-05T19:48:40.451Z,48.57
2023-02-05T19:51:10.079Z,59.30
2023-02-05T19:53:40.709Z,62.37
2023-02-05T19:56:10.369Z,54.17
2023-02-05T19:58:40.010Z,47.23
2023-02-05T20:01:12.604Z,54.70
2023-02-05T20:03:41.043Z,45.23
2023-02-05T20:06:11.585Z,58.30
2023-02-05T20:08:41.718Z,44.93
2023-02-05T20:11:10.826Z,56.57
2023-02-05T20:13:40.134Z,57.83
2023-02-05T20:16:10.512Z,49.83
2023-02-05T20:18:39.294Z,54.00
2023-02-05T20:21:07.977Z,64.93
2023-02-05T20:23:36.614Z,61.53
2023-02-05T20:26:07.907Z,61.20
2023-02-05T20:28:58.737Z,73.03
2023-02-05T20:31:41.305Z,75.07
2023-02-05T20:34:11.451Z,68.27
2023-02-05T20:36:40.068Z,78.23
2023-02-05T20:39:09.383Z,71.60
2023-02-05T20:41:39.147Z,101.60
2023-02-05T20:44:07.550Z,85.97
2023-02-05T20:46:36.302Z,87.83
2023-02-05T20:49:04.743Z,85.90
2023-02-05T20:51:33.345Z,109.70
2023-02-05T20:54:01.886Z,104.90
2023-02-05T20:56:31.424Z,112.53
2023-02-05T20:59:01.676Z,127.53
2023-02-05T21:01:30.659Z,106.53
2023-02-05T21:04:00.081Z,87.80
2023-02-05T21:06:29.180Z,117.73
2023-02-05T21:08:57.674Z,115.93
2023-02-05T21:11:26.431Z,104.80
2023-02-05T21:13:54.817Z,98.60
2023-02-05T21:16:25.639Z,112.63
2023-02-05T21:18:54.375Z,95.50
2023-02-05T21:21:25.179Z,101.47
2023-02-05T21:23:57.477Z,104.17
2023-02-05T21:26:26.771Z,110.50
2023-02-05T21:28:55.413Z,93.70
2023-02-05T21:31:25.643Z,103.10
2023-02-05T21:33:54.290Z,124.43
2023-02-05T21:36:22.686Z,109.97
2023-02-05T21:38:51.182Z,124.27
2023-02-05T21:41:20.359Z,105.80
2023-02-05T21:43:50.346Z,100.23
2023-02-05T21:46:19.107Z,107.53
2023-02-05T21:48:51.089Z,105.57
2023-02-05T21:51:20.591Z,113.50
2023-02-05T21:53:48.981Z,119.23
2023-02-05T21:56:18.263Z,123.10
2023-02-05T21:58:46.715Z,106.73
2023-02-05T22:01:16.630Z,99.00
2023-02-05T22:03:45.931Z,78.03
2023-02-05T22:06:15.641Z,104.90
2023-02-05T22:08:46.144Z,87.73
2023-02-05T22:11:14.516Z,83.63
2023-02-05T22:13:43.931Z,85.67
2023-02-05T22:16:14.008Z,93.97
2023-02-05T22:18:42.960Z,83.80
2023-02-05T22:21:12.591Z,78.00
2023-02-05T22:23:43.094Z,75.07
2023-02-05T22:26:11.960Z,82.07
2023-02-05T22:28:40.552Z,80.03
2023-02-05T22:31:09.744Z,75.40
2023-02-05T22:33:39.257Z,83.97
2023-02-05T22:36:08.694Z,77.90
2023-02-05T22:38:38.416Z,74.80
2023-02-05T22:41:10.384Z,70.07
2023-02-05T22:43:39.252Z,70.90
2023-02-05T22:46:08.018Z,61.77
2023-02-05T22:48:36.925Z,76.50
2023-02-05T22:51:06.127Z,72.53
2023-02-05T22:53:35.095Z,75.67
2023-02-05T22:56:03.799Z,80.30
2023-02-05T22:58:34.553Z,65.93
2023-02-05T23:01:09.037Z,70.43
2023-02-05T23:03:38.952Z,79.17
2023-02-05T23:06:11.535Z,77.00
2023-02-05T23:08:40.194Z,74.23
2023-02-05T23:11:09.331Z,72.17
2023-02-05T23:13:39.223Z,69.67
2023-02-05T23:16:08.748Z,78.57
2023-02-05T23:18:37.556Z,63.90
2023-02-05T23:21:08.467Z,72.70
2023-02-05T23:23:36.896Z,66.80
2023-02-05T23:26:09.634Z,62.13
2023-02-05T23:28:39.618Z,74.97
2023-02-05T23:31:08.254Z,65.47
2023-02-05T23:33:37.123Z,58.50
2023-02-05T23:36:05.836Z,72.03
2023-02-05T23:38:34.214Z,63.53
2023-02-05T23:41:02.899Z,56.80
2023-02-05T23:43:32.980Z,72.30
2023-02-05T23:46:02.816Z,62.10
2023-02-05T23:48:31.158Z,65.57
2023-02-05T23:50:59.603Z,65.47
2023-02-05T23:53:28.113Z,50.70
2023-02-05T23:55:56.574Z,58.23
2023-02-05T23:58:26.071Z,64.03
